Time;durP1;ratioP1;P1;durP2;ratioP2;P2;SDS_P1;SDS_P2;PMS_P1;PMS_P2;Temp;Humidity;BMP_temperature;BMP_pressure;BME280_temperature;BME280_humidity;BME280_pressure;Samples;Min_cycle;Max_cycle;Signal;HPM_P1;HPM_P2
2022/02/20 00:00:55;;;;;;;12.05;7.68;;;;;;;;;;10243474;28;20077;-66
2022/02/20 00:05:54;;;;;;;16.42;7.35;;;;;;;;;;10243737;28;20068;-66
2022/02/20 00:10:52;;;;;;;13.43;6.65;;;;;;;;;;10243892;28;20076;-66
2022/02/20 00:15:50;;;;;;;15.07;7.28;;;;;;;;;;10244918;28;20061;-65
2022/02/20 00:20:50;;;;;;;12.73;6.97;;;;;;;;;;10242372;28;20077;-64
2022/02/20 00:25:48;;;;;;;11.55;7.70;;;;;;;;;;10241854;28;20076;-66
2022/02/20 00:30:47;;;;;;;11.13;6.53;;;;;;;;;;10245765;28;20084;-65
2022/02/20 00:35:45;;;;;;;11.27;7.47;;;;;;;;;;10250938;28;20461;-67
2022/02/20 00:40:45;;;;;;;13.32;7.32;;;;;;;;;;10250020;28;20527;-66
2022/02/20 00:45:45;;;;;;;10.82;7.38;;;;;;;;;;10254521;28;20092;-66
2022/02/20 00:50:44;;;;;;;24.02;10.30;;;;;;;;;;10243831;28;20038;-67
2022/02/20 00:55:43;;;;;;;12.98;7.97;;;;;;;;;;10240844;28;20069;-67
2022/02/20 01:00:42;;;;;;;12.13;8.23;;;;;;;;;;10241471;28;20517;-68
2022/02/20 01:05:42;;;;;;;13.13;7.32;;;;;;;;;;10242061;28;20434;-66
2022/02/20 01:10:43;;;;;;;12.98;7.45;;;;;;;;;;10241289;28;20053;-68
2022/02/20 01:15:43;;;;;;;14.55;7.03;;;;;;;;;;10251156;28;20041;-67
2022/02/20 01:20:41;;;;;;;14.82;7.53;;;;;;;;;;10240325;28;20079;-66
2022/02/20 01:25:40;;;;;;;11.80;6.60;;;;;;;;;;10241134;28;20081;-67
2022/02/20 01:30:38;;;;;;;10.00;6.95;;;;;;;;;;10242953;28;20065;-67
2022/02/20 01:35:39;;;;;;;13.10;6.88;;;;;;;;;;10243831;28;20467;-68
2022/02/20 01:40:37;;;;;;;12.93;6.43;;;;;;;;;;10253175;28;20050;-66
2022/02/20 01:45:39;;;;;;;13.00;6.57;;;;;;;;;;10252606;28;20088;-66
2022/02/20 01:50:43;;;;;;;11.55;6.13;;;;;;;;;;10255246;28;20061;-66
2022/02/20 01:55:42;;;;;;;11.80;7.13;;;;;;;;;;10256753;28;20089;-66
2022/02/20 02:01:00;;;;;;;12.15;6.15;;;;;;;;;;10256588;28;20077;-65
2022/02/20 02:06:22;;;;;;;9.38;5.93;;;;;;;;;;10249662;28;20084;-66
2022/02/20 02:11:24;;;;;;;9.52;6.05;;;;;;;;;;10249393;28;20076;-66
2022/02/20 02:16:57;;;;;;;10.85;6.65;;;;;;;;;;10254804;28;20088;-66
2022/02/20 02:22:12;;;;;;;8.93;5.43;;;;;;;;;;10244973;28;20092;-66
2022/02/20 02:27:32;;;;;;;10.02;5.80;;;;;;;;;;10245704;28;20104;-66
2022/02/20 02:32:43;;;;;;;11.10;5.97;;;;;;;;;;10244390;28;20088;-66
2022/02/20 02:37:45;;;;;;;13.70;6.50;;;;;;;;;;10247006;28;20049;-66
2022/02/20 02:42:43;;;;;;;12.55;7.05;;;;;;;;;;10246023;28;20080;-65
2022/02/20 02:47:44;;;;;;;13.07;6.20;;;;;;;;;;10248248;28;20085;-66
2022/02/20 02:52:45;;;;;;;36.97;22.27;;;;;;;;;;10246911;28;20076;-66
2022/02/20 02:57:46;;;;;;;10.52;6.38;;;;;;;;;;10246282;28;20075;-66
2022/02/20 03:02:45;;;;;;;13.50;9.48;;;;;;;;;;10248262;28;20061;-66
2022/02/20 03:07:46;;;;;;;8.57;5.50;;;;;;;;;;10246981;28;20045;-66
2022/02/20 03:12:46;;;;;;;10.52;6.88;;;;;;;;;;10247620;28;20489;-66
2022/02/20 03:17:44;;;;;;;9.90;6.68;;;;;;;;;;10249328;28;20083;-66
2022/02/20 03:22:43;;;;;;;28.80;18.73;;;;;;;;;;10245072;28;20077;-66
2022/02/20 03:27:43;;;;;;;10.43;7.93;;;;;;;;;;10246348;28;20206;-66
2022/02/20 03:32:49;;;;;;;11.77;10.57;;;;;;;;;;10247718;28;20084;-66
2022/02/20 03:37:53;;;;;;;11.87;6.73;;;;;;;;;;10245718;28;20084;-66
2022/02/20 03:43:02;;;;;;;69.80;37.35;;;;;;;;;;10241840;28;20359;-65
2022/02/20 03:48:13;;;;;;;47.72;26.42;;;;;;;;;;10262970;28;20049;-66
2022/02/20 03:53:18;;;;;;;21.52;13.77;;;;;;;;;;10239663;28;20064;-66
2022/02/20 03:58:18;;;;;;;20.17;11.77;;;;;;;;;;10243787;28;20149;-66
2022/02/20 04:03:20;;;;;;;19.40;10.80;;;;;;;;;;10241598;28;20085;-66
2022/02/20 04:08:21;;;;;;;17.63;10.00;;;;;;;;;;10242085;28;20407;-66
2022/02/20 04:13:25;;;;;;;18.17;10.50;;;;;;;;;;10243315;28;20061;-66
2022/02/20 04:18:24;;;;;;;21.08;12.13;;;;;;;;;;10244108;28;20088;-66
2022/02/20 04:23:37;;;;;;;22.77;11.68;;;;;;;;;;10245614;28;20139;-65
2022/02/20 04:28:38;;;;;;;18.75;11.88;;;;;;;;;;10248556;28;20057;-65
2022/02/20 04:33:37;;;;;;;22.05;12.50;;;;;;;;;;10244264;28;20076;-66
2022/02/20 04:38:36;;;;;;;26.00;13.23;;;;;;;;;;10256237;28;20084;-66
2022/02/20 04:43:39;;;;;;;17.00;10.85;;;;;;;;;;10250363;28;20088;-66
2022/02/20 04:48:40;;;;;;;17.77;10.57;;;;;;;;;;10257895;28;20501;-65
2022/02/20 04:53:52;;;;;;;23.73;12.98;;;;;;;;;;10246358;28;20053;-66
2022/02/20 04:58:54;;;;;;;15.95;10.18;;;;;;;;;;10255084;28;20052;-66
2022/02/20 05:04:06;;;;;;;20.30;10.38;;;;;;;;;;10244496;28;20088;-66
2022/02/20 05:09:17;;;;;;;14.93;10.00;;;;;;;;;;10238869;28;20057;-66
2022/02/20 05:14:26;;;;;;;16.77;10.30;;;;;;;;;;10258735;28;20397;-66
2022/02/20 05:19:28;;;;;;;16.75;9.90;;;;;;;;;;10238343;28;20462;-66
2022/02/20 05:24:27;;;;;;;14.35;9.80;;;;;;;;;;10238788;28;20087;-67
2022/02/20 05:29:27;;;;;;;24.55;11.32;;;;;;;;;;10245078;28;20069;-66
2022/02/20 05:34:29;;;;;;;20.23;11.38;;;;;;;;;;10237677;28;20052;-66
2022/02/20 05:39:27;;;;;;;19.35;11.93;;;;;;;;;;10239921;28;20528;-67
2022/02/20 05:44:30;;;;;;;23.13;15.18;;;;;;;;;;10242799;28;20202;-66
2022/02/20 05:49:29;;;;;;;29.25;19.85;;;;;;;;;;10241346;28;20076;-67
2022/02/20 05:54:30;;;;;;;25.70;15.00;;;;;;;;;;10245919;28;20090;-67
2022/02/20 05:59:28;;;;;;;21.63;13.35;;;;;;;;;;10244755;28;20516;-67
2022/02/20 06:04:28;;;;;;;23.48;12.73;;;;;;;;;;10245355;28;20087;-67
2022/02/20 06:09:47;;;;;;;22.48;13.50;;;;;;;;;;10241882;28;20498;-66
2022/02/20 06:14:53;;;;;;;20.08;12.23;;;;;;;;;;10237242;28;20499;-67
2022/02/20 06:20:10;;;;;;;20.50;10.20;;;;;;;;;;10249398;28;20485;-66
2022/02/20 06:25:24;;;;;;;20.60;13.10;;;;;;;;;;10249122;28;20088;-65
2022/02/20 06:30:28;;;;;;;19.77;14.32;;;;;;;;;;10259807;28;20083;-63
2022/02/20 06:35:27;;;;;;;34.97;29.08;;;;;;;;;;10244684;28;20076;-64
2022/02/20 06:40:26;;;;;;;66.13;45.88;;;;;;;;;;10251942;28;20081;-64
2022/02/20 06:45:26;;;;;;;52.97;34.20;;;;;;;;;;10248124;28;20502;-64
2022/02/20 06:50:38;;;;;;;85.38;53.13;;;;;;;;;;10248882;28;20494;-64
2022/02/20 06:55:56;;;;;;;61.92;40.13;;;;;;;;;;10246604;28;20099;-64
2022/02/20 07:00:54;;;;;;;45.50;32.40;;;;;;;;;;10246857;28;20065;-64
2022/02/20 07:05:54;;;;;;;79.65;43.92;;;;;;;;;;10253893;28;20467;-64
2022/02/20 07:10:53;;;;;;;44.63;27.15;;;;;;;;;;10251617;28;20491;-63
2022/02/20 07:15:51;;;;;;;59.70;36.28;;;;;;;;;;10247764;28;20072;-64
2022/02/20 07:20:49;;;;;;;45.88;32.00;;;;;;;;;;10246970;28;20077;-63
2022/02/20 07:25:49;;;;;;;58.20;32.58;;;;;;;;;;10245322;28;20069;-64
2022/02/20 07:30:47;;;;;;;31.65;19.88;;;;;;;;;;10241861;28;20073;-64
2022/02/20 07:35:45;;;;;;;22.40;15.98;;;;;;;;;;10243345;28;20072;-64
2022/02/20 07:40:44;;;;;;;96.40;58.13;;;;;;;;;;10242629;28;20476;-65
2022/02/20 07:45:43;;;;;;;33.22;18.45;;;;;;;;;;10242491;28;20077;-65
2022/02/20 07:50:42;;;;;;;27.40;17.85;;;;;;;;;;10239027;28;20465;-65
2022/02/20 07:55:41;;;;;;;51.30;27.88;;;;;;;;;;10249845;28;20092;-65
2022/02/20 08:00:39;;;;;;;43.88;29.02;;;;;;;;;;10246947;28;20080;-65
2022/02/20 08:05:39;;;;;;;59.05;39.25;;;;;;;;;;10245362;28;20080;-65
2022/02/20 08:10:37;;;;;;;44.13;25.73;;;;;;;;;;10242021;28;20049;-65
2022/02/20 08:15:36;;;;;;;59.20;34.03;;;;;;;;;;10241235;28;20530;-65
2022/02/20 08:20:35;;;;;;;52.60;33.80;;;;;;;;;;10243747;28;20113;-65
2022/02/20 08:25:37;;;;;;;54.10;31.27;;;;;;;;;;10241792;28;20487;-65
2022/02/20 08:30:35;;;;;;;46.10;25.88;;;;;;;;;;10249706;28;20068;-65
2022/02/20 08:35:34;;;;;;;34.65;20.10;;;;;;;;;;10240171;28;20074;-65
2022/02/20 08:40:33;;;;;;;31.35;19.98;;;;;;;;;;10241831;28;20088;-65
2022/02/20 08:45:33;;;;;;;31.33;16.45;;;;;;;;;;10244436;28;20084;-65
2022/02/20 08:50:31;;;;;;;37.97;20.70;;;;;;;;;;10243559;28;20042;-67
2022/02/20 08:55:30;;;;;;;32.45;24.02;;;;;;;;;;10247182;28;20111;-65
2022/02/20 09:00:28;;;;;;;29.00;19.15;;;;;;;;;;10257383;28;20106;-66
2022/02/20 09:05:28;;;;;;;38.83;22.23;;;;;;;;;;10244512;28;20100;-65
2022/02/20 09:10:26;;;;;;;37.88;22.85;;;;;;;;;;10242032;28;20084;-66
2022/02/20 09:15:24;;;;;;;27.75;16.70;;;;;;;;;;10242457;28;20068;-66
2022/02/20 09:20:23;;;;;;;25.08;14.40;;;;;;;;;;10246111;28;20068;-65
2022/02/20 09:25:23;;;;;;;23.42;15.30;;;;;;;;;;10241722;28;20081;-65
2022/02/20 09:30:21;;;;;;;19.85;12.82;;;;;;;;;;10240919;28;20521;-65
2022/02/20 09:35:19;;;;;;;17.80;14.25;;;;;;;;;;10240905;28;20069;-65
2022/02/20 09:40:18;;;;;;;17.75;12.32;;;;;;;;;;10242435;28;20076;-65
2022/02/20 09:45:18;;;;;;;28.42;17.25;;;;;;;;;;10240909;28;20081;-67
2022/02/20 09:50:16;;;;;;;26.65;14.70;;;;;;;;;;10244996;28;20087;-65
2022/02/20 09:55:14;;;;;;;26.90;14.77;;;;;;;;;;10244907;28;20073;-65
2022/02/20 10:00:13;;;;;;;19.65;13.43;;;;;;;;;;10256610;28;20057;-65
2022/02/20 10:05:18;;;;;;;25.23;16.90;;;;;;;;;;10253099;28;20085;-65
2022/02/20 10:10:17;;;;;;;22.33;11.13;;;;;;;;;;10252536;28;20115;-64
2022/02/20 10:15:25;;;;;;;37.08;20.42;;;;;;;;;;10260243;28;20470;-64
2022/02/20 10:20:25;;;;;;;22.60;14.63;;;;;;;;;;10255689;28;20084;-65
2022/02/20 10:25:43;;;;;;;18.83;11.95;;;;;;;;;;10257914;28;20331;-64
2022/02/20 10:31:16;;;;;;;21.48;15.27;;;;;;;;;;10258871;28;20407;-66
2022/02/20 10:36:16;;;;;;;18.95;12.02;;;;;;;;;;10256452;28;20076;-65
2022/02/20 10:41:14;;;;;;;33.50;17.65;;;;;;;;;;10249267;28;20038;-65
2022/02/20 10:46:14;;;;;;;25.95;13.88;;;;;;;;;;10250442;28;20073;-65
2022/02/20 10:51:13;;;;;;;26.35;17.48;;;;;;;;;;10254343;28;20410;-66
2022/02/20 10:56:12;;;;;;;19.63;15.00;;;;;;;;;;10259799;28;20073;-65
2022/02/20 11:01:20;;;;;;;21.38;14.00;;;;;;;;;;10252947;28;20088;-60
2022/02/20 11:06:19;;;;;;;23.27;16.08;;;;;;;;;;10258386;28;20079;-59
2022/02/20 11:11:39;;;;;;;30.10;17.88;;;;;;;;;;10256722;28;20073;-59
2022/02/20 11:16:42;;;;;;;23.00;13.88;;;;;;;;;;10253102;28;20079;-61
2022/02/20 11:21:43;;;;;;;23.08;14.35;;;;;;;;;;10252113;28;20079;-60
2022/02/20 11:26:44;;;;;;;30.05;16.65;;;;;;;;;;10253949;28;20075;-60
2022/02/20 11:31:42;;;;;;;23.67;11.90;;;;;;;;;;10253187;28;20065;-59
2022/02/20 11:36:50;;;;;;;17.20;11.02;;;;;;;;;;10248359;28;20080;-60
2022/02/20 11:42:12;;;;;;;37.40;24.42;;;;;;;;;;10249029;28;20065;-60
2022/02/20 11:47:32;;;;;;;40.85;21.15;;;;;;;;;;10233334;28;20458;-60
2022/02/20 11:52:44;;;;;;;17.02;11.73;;;;;;;;;;10243028;28;20095;-60
2022/02/20 11:57:44;;;;;;;18.58;11.73;;;;;;;;;;10239517;28;20069;-61
2022/02/20 12:03:03;;;;;;;33.42;14.60;;;;;;;;;;10242328;28;20073;-60
2022/02/20 12:08:04;;;;;;;22.05;13.25;;;;;;;;;;10238218;28;20470;-60
2022/02/20 12:13:21;;;;;;;18.42;10.68;;;;;;;;;;10241805;28;20690;-60
2022/02/20 12:18:26;;;;;;;28.05;17.40;;;;;;;;;;10239746;28;20076;-60
2022/02/20 12:23:29;;;;;;;38.60;22.02;;;;;;;;;;10248621;28;20077;-60
2022/02/20 12:28:34;;;;;;;52.67;33.22;;;;;;;;;;10239727;28;20144;-60
2022/02/20 12:33:35;;;;;;;24.77;15.00;;;;;;;;;;10247608;28;20088;-60
2022/02/20 12:38:34;;;;;;;59.83;32.83;;;;;;;;;;10241913;28;20065;-60
2022/02/20 12:43:33;;;;;;;27.63;16.00;;;;;;;;;;10243353;28;20509;-62
2022/02/20 12:48:31;;;;;;;31.55;20.25;;;;;;;;;;10244666;28;20084;-62
2022/02/20 12:53:29;;;;;;;118.85;75.43;;;;;;;;;;10240298;28;20065;-62
2022/02/20 12:58:29;;;;;;;27.00;16.05;;;;;;;;;;10239483;28;20073;-60
2022/02/20 13:03:27;;;;;;;26.20;16.17;;;;;;;;;;10245299;28;20064;-60
2022/02/20 13:08:27;;;;;;;20.98;13.40;;;;;;;;;;10243512;28;20088;-60
2022/02/20 13:13:26;;;;;;;18.80;12.75;;;;;;;;;;10238958;28;20080;-60
2022/02/20 13:18:27;;;;;;;29.80;17.63;;;;;;;;;;10241809;28;20076;-61
2022/02/20 13:23:26;;;;;;;30.27;16.13;;;;;;;;;;10241659;28;20082;-61
2022/02/20 13:28:26;;;;;;;42.47;24.52;;;;;;;;;;10240938;28;20088;-61
2022/02/20 13:33:31;;;;;;;24.40;15.38;;;;;;;;;;10245890;28;20068;-61
2022/02/20 13:38:29;;;;;;;23.90;15.93;;;;;;;;;;10244491;28;20490;-61
2022/02/20 13:43:41;;;;;;;28.70;18.88;;;;;;;;;;10240401;28;20073;-60
2022/02/20 13:48:42;;;;;;;35.17;23.95;;;;;;;;;;10247752;28;20085;-61
2022/02/20 13:53:44;;;;;;;22.00;14.82;;;;;;;;;;10240094;28;20065;-61
2022/02/20 13:58:43;;;;;;;26.63;16.90;;;;;;;;;;10240823;28;20080;-61
2022/02/20 14:03:43;;;;;;;21.20;15.05;;;;;;;;;;10243640;28;20533;-61
2022/02/20 14:08:42;;;;;;;20.70;15.77;;;;;;;;;;10244507;28;20127;-61
2022/02/20 14:13:42;;;;;;;38.65;25.27;;;;;;;;;;10244154;28;20422;-61
2022/02/20 14:18:41;;;;;;;60.55;33.20;;;;;;;;;;10238917;28;20073;-60
2022/02/20 14:23:43;;;;;;;86.18;42.03;;;;;;;;;;10240766;28;20533;-61
2022/02/20 14:28:50;;;;;;;52.65;31.73;;;;;;;;;;10239618;28;20065;-61
2022/02/20 14:33:50;;;;;;;37.95;25.00;;;;;;;;;;10242668;28;20068;-61
2022/02/20 14:38:50;;;;;;;124.28;92.15;;;;;;;;;;10239312;28;20099;-61
2022/02/20 14:43:49;;;;;;;57.42;38.35;;;;;;;;;;10245924;28;20064;-60
2022/02/20 14:48:48;;;;;;;79.90;54.00;;;;;;;;;;10250476;28;20475;-61
2022/02/20 14:53:46;;;;;;;47.03;35.63;;;;;;;;;;10252982;28;20612;-61
2022/02/20 14:58:46;;;;;;;134.68;97.53;;;;;;;;;;10247522;28;20096;-61
2022/02/20 15:03:45;;;;;;;160.85;54.08;;;;;;;;;;10251663;28;20068;-61
2022/02/20 15:08:43;;;;;;;58.20;40.13;;;;;;;;;;10256529;28;20522;-60
2022/02/20 15:13:43;;;;;;;55.90;37.33;;;;;;;;;;10251158;28;20069;-60
2022/02/20 15:18:42;;;;;;;44.00;29.10;;;;;;;;;;10249854;28;20065;-60
2022/02/20 15:23:42;;;;;;;57.58;35.83;;;;;;;;;;10242210;28;20072;-59
2022/02/20 15:28:40;;;;;;;34.97;22.83;;;;;;;;;;10255501;28;20077;-56
2022/02/20 15:33:38;;;;;;;39.83;28.63;;;;;;;;;;10247402;28;20061;-56
2022/02/20 15:38:38;;;;;;;27.33;18.85;;;;;;;;;;10249654;28;20318;-53
2022/02/20 15:43:36;;;;;;;27.67;18.58;;;;;;;;;;10248168;28;20065;-56
2022/02/20 15:48:34;;;;;;;46.60;30.15;;;;;;;;;;10253792;28;20482;-52
2022/02/20 15:53:35;;;;;;;45.85;22.05;;;;;;;;;;10255745;28;20061;-56
2022/02/20 15:58:35;;;;;;;34.20;20.15;;;;;;;;;;10250262;28;20073;-55
2022/02/20 16:03:33;;;;;;;38.70;25.88;;;;;;;;;;10250712;28;20490;-57
2022/02/20 16:08:32;;;;;;;46.83;35.60;;;;;;;;;;10251061;28;20132;-52
2022/02/20 16:13:32;;;;;;;47.78;37.65;;;;;;;;;;10247891;28;20071;-54
2022/02/20 16:18:32;;;;;;;37.60;25.80;;;;;;;;;;10251047;28;20076;-56
2022/02/20 16:23:30;;;;;;;27.73;20.13;;;;;;;;;;10246790;28;20080;-55
2022/02/20 16:28:30;;;;;;;39.67;26.40;;;;;;;;;;10248545;28;20498;-56
2022/02/20 16:33:28;;;;;;;40.75;26.30;;;;;;;;;;10247579;28;20081;-55
2022/02/20 16:38:27;;;;;;;42.70;24.88;;;;;;;;;;10255374;28;20471;-53
2022/02/20 16:43:26;;;;;;;28.40;20.75;;;;;;;;;;10247699;28;20084;-56
2022/02/20 16:48:25;;;;;;;47.13;25.42;;;;;;;;;;10244249;28;20501;-55
2022/02/20 16:53:23;;;;;;;22.50;15.88;;;;;;;;;;10251703;28;20073;-51
2022/02/20 16:58:23;;;;;;;38.70;26.10;;;;;;;;;;10244781;28;20084;-54
2022/02/20 17:03:21;;;;;;;32.03;26.77;;;;;;;;;;10245382;28;20075;-54
2022/02/20 17:08:20;;;;;;;169.55;64.80;;;;;;;;;;10242917;28;20079;-54
2022/02/20 17:13:18;;;;;;;46.08;30.80;;;;;;;;;;10240654;28;20068;-56
2022/02/20 17:18:18;;;;;;;28.02;20.80;;;;;;;;;;10238969;28;20073;-53
2022/02/20 17:23:16;;;;;;;30.23;25.30;;;;;;;;;;10241875;28;20084;-52
2022/02/20 17:28:15;;;;;;;43.38;30.13;;;;;;;;;;10244256;28;20460;-54
2022/02/20 17:33:13;;;;;;;44.22;31.08;;;;;;;;;;10252245;28;20075;-51
2022/02/20 17:38:13;;;;;;;43.35;31.88;;;;;;;;;;10252983;28;20068;-56
2022/02/20 17:43:13;;;;;;;50.97;35.00;;;;;;;;;;10249189;28;20068;-55
2022/02/20 17:48:11;;;;;;;37.92;26.00;;;;;;;;;;10246864;28;20081;-53
2022/02/20 17:53:10;;;;;;;33.95;24.58;;;;;;;;;;10233933;28;20128;-51
2022/02/20 17:58:09;;;;;;;24.30;18.85;;;;;;;;;;10242346;28;20072;-52
2022/02/20 18:03:10;;;;;;;20.60;15.93;;;;;;;;;;10242549;28;20071;-55
2022/02/20 18:08:13;;;;;;;27.73;23.00;;;;;;;;;;10236552;28;20502;-52
2022/02/20 18:13:13;;;;;;;49.65;38.40;;;;;;;;;;10246141;28;20076;-57
2022/02/20 18:18:11;;;;;;;27.20;17.98;;;;;;;;;;10242958;28;20083;-53
2022/02/20 18:23:09;;;;;;;25.38;19.75;;;;;;;;;;10250956;28;20068;-56
2022/02/20 18:28:08;;;;;;;36.45;26.33;;;;;;;;;;10247910;28;20129;-50
2022/02/20 18:33:08;;;;;;;30.38;24.02;;;;;;;;;;10250518;28;20069;-53
2022/02/20 18:38:12;;;;;;;35.47;26.05;;;;;;;;;;10254756;28;20072;-55
2022/02/20 18:43:11;;;;;;;30.20;21.77;;;;;;;;;;10253543;28;20414;-55
2022/02/20 18:48:11;;;;;;;83.60;54.33;;;;;;;;;;10250553;28;20143;-54
2022/02/20 18:53:10;;;;;;;68.97;51.38;;;;;;;;;;10249414;28;20544;-55
2022/02/20 18:58:08;;;;;;;77.60;53.67;;;;;;;;;;10246033;28;20077;-53
2022/02/20 19:03:09;;;;;;;44.92;28.90;;;;;;;;;;10253053;28;20454;-55
2022/02/20 19:08:09;;;;;;;51.67;36.05;;;;;;;;;;10246820;28;20124;-52
2022/02/20 19:13:07;;;;;;;60.20;47.20;;;;;;;;;;10249762;28;20068;-53
2022/02/20 19:18:11;;;;;;;41.75;32.83;;;;;;;;;;10249321;28;20106;-55
2022/02/20 19:23:11;;;;;;;34.25;25.65;;;;;;;;;;10246485;28;20076;-55
2022/02/20 19:28:10;;;;;;;36.33;27.08;;;;;;;;;;10248301;28;20124;-55
2022/02/20 19:33:08;;;;;;;29.45;21.05;;;;;;;;;;10247748;28;20141;-56
2022/02/20 19:38:06;;;;;;;36.17;27.08;;;;;;;;;;10251038;28;20137;-55
2022/02/20 19:43:06;;;;;;;27.95;20.13;;;;;;;;;;10249244;28;20510;-55
2022/02/20 19:48:08;;;;;;;27.17;22.17;;;;;;;;;;10242883;28;20084;-55
2022/02/20 19:53:07;;;;;;;25.73;20.23;;;;;;;;;;10250490;28;20084;-53
2022/02/20 19:58:06;;;;;;;24.02;18.50;;;;;;;;;;10248382;28;20069;-55
2022/02/20 20:03:05;;;;;;;28.77;18.50;;;;;;;;;;10245839;28;20069;-56
2022/02/20 20:08:03;;;;;;;53.38;31.13;;;;;;;;;;10243778;28;20132;-55
2022/02/20 20:13:02;;;;;;;33.13;26.17;;;;;;;;;;10251830;28;20501;-54
2022/02/20 20:18:02;;;;;;;35.50;28.95;;;;;;;;;;10250604;28;20583;-53
2022/02/20 20:23:00;;;;;;;24.10;19.90;;;;;;;;;;10250444;28;20492;-55
2022/02/20 20:27:58;;;;;;;23.30;16.63;;;;;;;;;;10243396;28;20469;-55
2022/02/20 20:32:57;;;;;;;31.58;22.75;;;;;;;;;;10240983;28;20140;-54
2022/02/20 20:37:58;;;;;;;23.95;18.60;;;;;;;;;;10250781;28;20087;-54
2022/02/20 20:42:57;;;;;;;23.67;15.75;;;;;;;;;;10236526;28;20168;-55
2022/02/20 20:47:56;;;;;;;21.55;15.45;;;;;;;;;;10244113;28;20098;-53
2022/02/20 20:52:55;;;;;;;20.85;15.63;;;;;;;;;;10240291;28;20072;-54
2022/02/20 20:57:55;;;;;;;26.05;23.35;;;;;;;;;;10242039;28;20073;-55
2022/02/20 21:02:53;;;;;;;28.13;22.20;;;;;;;;;;10242264;28;20486;-56
2022/02/20 21:07:52;;;;;;;23.10;16.42;;;;;;;;;;10237639;28;20141;-52
2022/02/20 21:12:56;;;;;;;23.73;18.50;;;;;;;;;;10237182;28;20520;-56
2022/02/20 21:17:54;;;;;;;21.20;16.35;;;;;;;;;;10238487;28;20064;-54
2022/02/20 21:22:53;;;;;;;21.60;17.23;;;;;;;;;;10239888;28;20128;-53
2022/02/20 21:27:51;;;;;;;23.00;18.90;;;;;;;;;;10237685;28;20948;-53
2022/02/20 21:32:51;;;;;;;22.80;18.35;;;;;;;;;;10240060;28;20474;-54
2022/02/20 21:37:49;;;;;;;19.85;15.30;;;;;;;;;;10244685;28;20060;-51
2022/02/20 21:42:47;;;;;;;22.17;17.55;;;;;;;;;;10240358;28;20660;-52
2022/02/20 21:47:46;;;;;;;70.93;48.65;;;;;;;;;;10239589;28;20080;-54
2022/02/20 21:52:45;;;;;;;18.23;14.23;;;;;;;;;;10234227;28;20577;-54
2022/02/20 21:57:44;;;;;;;18.15;14.07;;;;;;;;;;10248973;28;20519;-53
2022/02/20 22:02:43;;;;;;;19.58;14.63;;;;;;;;;;10255532;28;20614;-56
2022/02/20 22:07:41;;;;;;;22.55;15.43;;;;;;;;;;10252163;28;20084;-52
2022/02/20 22:12:41;;;;;;;68.05;45.42;;;;;;;;;;10252540;28;20179;-53
2022/02/20 22:17:40;;;;;;;89.03;52.10;;;;;;;;;;10253978;28;20053;-51
2022/02/20 22:22:38;;;;;;;44.33;29.42;;;;;;;;;;10252761;28;20540;-53
2022/02/20 22:27:37;;;;;;;22.58;17.20;;;;;;;;;;10261365;28;20081;-55
2022/02/20 22:32:36;;;;;;;27.38;17.05;;;;;;;;;;10260088;28;20072;-55
2022/02/20 22:37:35;;;;;;;25.98;19.08;;;;;;;;;;10245985;28;20458;-53
2022/02/20 22:42:33;;;;;;;17.98;16.00;;;;;;;;;;10246327;28;20080;-54
2022/02/20 22:47:33;;;;;;;23.20;16.30;;;;;;;;;;10250435;28;20073;-54
2022/02/20 22:52:33;;;;;;;20.48;15.77;;;;;;;;;;10249371;28;20510;-56
2022/02/20 22:57:31;;;;;;;23.33;17.65;;;;;;;;;;10255312;28;20083;-54
2022/02/20 23:02:30;;;;;;;25.52;18.00;;;;;;;;;;10265405;28;20073;-54
2022/02/20 23:07:28;;;;;;;20.83;17.08;;;;;;;;;;10254485;28;20072;-56
2022/02/20 23:12:28;;;;;;;25.02;18.30;;;;;;;;;;10270188;28;20065;-56
2022/02/20 23:17:27;;;;;;;22.23;17.15;;;;;;;;;;10244431;28;20081;-55
2022/02/20 23:22:25;;;;;;;29.52;25.75;;;;;;;;;;10249942;28;20077;-56
2022/02/20 23:27:24;;;;;;;24.35;18.50;;;;;;;;;;10247187;28;20442;-56
2022/02/20 23:32:23;;;;;;;28.45;19.73;;;;;;;;;;10251271;28;20096;-53
2022/02/20 23:37:22;;;;;;;46.20;34.70;;;;;;;;;;10247944;28;20073;-53
2022/02/20 23:42:20;;;;;;;69.35;43.58;;;;;;;;;;10248041;28;20087;-53
2022/02/20 23:47:18;;;;;;;28.23;22.63;;;;;;;;;;10204277;28;1146200;-55
2022/02/20 23:52:18;;;;;;;31.90;20.08;;;;;;;;;;10260599;28;20080;-55
2022/02/20 23:57:16;;;;;;;29.73;19.80;;;;;;;;;;10270233;28;20079;-55
